Airfield :
LOGIN :

Register | Disclaimer

   EN    FR    IT 

 










Legend :    VFR   Marginal VFR   IFR   Intensive IFR   Very Intensive IFR
Visi :
Ceiling :
>= 8 km
>= 3000ft
5 to 8 km
1000 to 3000 ft
1500m to 5 km
500 to 1000 ft
800 to 1500m
200 to 500 ft
< 800m
< 200 ft
Symbols :   Thunderstorms  Fog  Heavy snow  Heavy precipitations  Wind > 20 kt
SIGMETs :     Misc.  Thunderstorms  Icing  Turbulence  Mountain Waves  Volcanic Ashes







- Airport Elevation : 83 ft
- IATA code : LHR
- Download approach charts


EGLL - London Heathrow

CURRENT METAR :
  • 261620Z AUTO 36006KT 310V040 9999 SCT046 13/02 Q1032 NOSIG

EXPIRED METARs :
  • 261550Z AUTO 34005KT 290V020 9999 SCT046 13/02 Q1032 NOSIG
  • 261520Z AUTO 35007KT 290V040 9999 BKN045 13/03 Q1033 NOSIG
  • 261450Z AUTO 36006KT 320V050 9999 BKN045 13/03 Q1033 NOSIG
  • 261420Z AUTO 01005KT 330V060 9999 BKN043 13/03 Q1033
  • 261350Z AUTO 31006KT 270V350 9999 SCT041 13/03 Q1033 NOSIG
  • 261320Z AUTO 35005KT 310V040 9999 BKN040 12/03 Q1034 NOSIG

TAF TAF EGLL
Valid from the 26 at 12:00 until the 27 at 18:00 UTC


261104Z 2612/2718 33008KT 9999 SCT040
PROB30
TEMPO 2703/2708 8000
No reported NOTAMs for that airfield.



MET'MAP, your aeronautical weather chart ! - Copyright ORBIFLY December 2007 - Disclaimer

ORBIFLY MET'MAP TEAM :

Programming & Development : Alexandra Zaïnal
Concept & Development : Baudouin d'Aumeries
Co-Development & Prog : Marc-Olivier Méhu
Technical & hardware support : Manuel Goepfert

Contact : metmap@orbifly.com




SOURCES & CREDITS :

   NOAA